Skip Navigation Links
NOAA logo - Click to go to the NOAA homepage
NOAA's National Weather Service
Alaska Aviation Weather Unit
  NWS logo - Click to go to the NWS homepage
Left Navbar Graphic     08 AKDT = 16 GMT

   
NOAA is celebrating 200 years of science, service, and stewardship. Visit the NOAA 200th celebration Web site to learn more.
USA.gov is the U.S. Government's official Web portal to all Federal, state and local government Web resources and services.
Facebook
NWS on Facebook

Important Change Regarding the AAWU Web Presence

 

Over the last several months, the AAWU has been working to navigate its webpages to a nationally supported server. Security, as well as other needs, have necessitated the change.  In the process, we have made an effort to enhance the functionality of our website, as well as some of our products. As of June 20, 2017, aawu.arh.noaa.gov will be discontinued. The new AAWU web address is weather.gov/aawu. It is now live and will run in-parallel with the old site until it is discontinued. Please send any feedback or questions regarding the new webpages to nws.ar.aawu.webauthors@noaa.gov.  Thank you for your patience during this time of transition.
AAWU Home :: Display TAF Add Bookmark
TAF CYDQ 231238Z 2313/2401 VRB03KT P6SM SCT100 BKN200
     FM232000 23012KT P6SM BKN050
      TEMPO 2320/2401 P6SM -SHRA PROB40 2320/2401 5SM -TSRA BR
      BKN050CB RMK FCST BASED ON AUTO OBS.
      NXT FCST BY 231900Z=

METAR CYDQ 231000Z AUTO 27005KT 170V310 9SM CLR 09/03 A2985 RMK SLP119= METAR CYDQ 231100Z AUTO 27005KT 200V300 9SM SCT160 BKN210 BKN240 07/03 A2984 RMK SLP118= METAR CYDQ 231200Z AUTO 02002KT 9SM FEW090 BKN130 BKN180 09/04 A2984 RMK SLP115= METAR CYDQ 231300Z AUTO 26006KT 9SM OVC095 12/04 A2984 RMK SLP112 DENSITY ALT 2300FT= METAR CYDQ 231400Z AUTO 17004KT 160V280 9SM BKN120 13/05 A2983 RMK SLP108 DENSITY ALT 2400FT= METAR CYDQ 231500Z AUTO 34004KT 290V040 9SM BKN110 BKN140 14/05 A2981 RMK SLP100 DENSITY ALT 2600FT= METAR CYDQ 231600Z AUTO 26008G16KT 9SM FEW120 17/05 A2977 RMK SLP087 DENSITY ALT 3000FT=
 Alaska TAF Map

NOAA's National Weather Service
Alaska Aviation Weather Unit
6930 Sand Lake Road
Anchorage, AK 99502-1845
Disclaimer
Credits
Glossary
Privacy Policy
About Us
Career Opportunities
Contact AAWU Internet Services Site last modified: April, 17th 2012